This is the latest recevied weather packets stored in our database for station/object DL7MAP-13. If no packets are shown the sender has not sent any weather packets the latest 10 day(s).
| Time | Temp. | Humidity | Pressure | Rain* | Wind** | Luminosity | Snow |
|---|---|---|---|---|---|---|---|
| 1777768087 | 12.22° C | 69% | 1009.2 hPa | - | - | - | - |
| 1777766287 | 12.78° C | 65% | 1009.4 hPa | - | - | - | - |
| 1777764487 | 13.33° C | 65% | 1009.6 hPa | - | - | - | - |
| 1777760887 | 13.33° C | 65% | 1010.1 hPa | - | - | - | - |
| 1777758187 | 15.56° C | 56% | 1010.3 hPa | - | - | - | - |
| 1777757287 | 15.56° C | 55% | 1010.4 hPa | - | - | - | - |
| 1777753687 | 17.78° C | 46% | 1010.2 hPa | - | - | - | - |
| 1777748287 | 22.78° C | 33% | 1010.9 hPa | - | - | - | - |
| 1777746487 | 23.33° C | 31% | 1010.5 hPa | - | - | - | - |
| 1777744687 | 24.44° C | 29% | 1010.2 hPa | - | - | - | - |
| 1777737487 | 26.11° C | 27% | 1011.9 hPa | - | - | - | - |
| 1777735687 | 26.11° C | 26% | 1012.9 hPa | - | - | - | - |
| 1777734787 | 26.67° C | 26% | 1012.1 hPa | - | - | - | - |
| 1777733887 | 26.11° C | 27% | 1013 hPa | - | - | - | - |
| 1777732087 | 26.11° C | 27% | 1013.2 hPa | - | - | - | - |
| 1777731187 | 26.11° C | 28% | 1014.1 hPa | - | - | - | - |
| 1777730287 | 26.11° C | 27% | 1013.3 hPa | - | - | - | - |
| 1777728487 | 25.56° C | 29% | 1013.1 hPa | - | - | - | - |
| 1777725787 | 25° C | 30% | 1015.3 hPa | - | - | - | - |
| 1777724887 | 25.56° C | 29% | 1016.2 hPa | - | - | - | - |
| 1777723987 | 25.56° C | 30% | 1015.1 hPa | - | - | - | - |
| 1777723087 | 25° C | 30% | 1016.2 hPa | - | - | - | - |
| 1777722187 | 24.44° C | 30% | 1014.9 hPa | - | - | - | - |
| 1777721287 | 24.44° C | 32% | 1016 hPa | - | - | - | - |
| 1777720387 | 24.44° C | 32% | 1016.1 hPa | - | - | - | - |
* Rain since midnight (hover to see other rain measurements)
** Current wind speed in m/s (hover to see current wind gust speed)